Aérodrome :
LOGIN :

S'inscrire | Disclaimer

   EN    FR    IT 

 










Légende :    VFR   VFR Marginal   IFR   IFR Intensif   IFR Très Intensif
Visi : 
Plafond : 
>= 8 km
>= 3000ft
5 à 8 km
1000 à 3000 ft
1500m à 5 km
500 à 1000 ft
800 à 1500m
200 à 500 ft
< 800m
< 200 ft
Symboles :   Orages  Brouillard  Fortes neiges  Fortes précipitations  Vent > 20 kt
SIGMETs :   Divers  Orages  Givrage  Turbulence  Onde Orograph.  Cendres Volcan.






- Altitude de l'aérodrome : 779 ft
- Code IATA : CMF


LFLB - Chambery / Aix-Les-Bains

DERNIER METAR :
  • 200800Z AUTO 34005KT 310V010 CAVOK 23/16 Q1024 NOSIG

METARs EXPIRÉS :
  • 200730Z AUTO 33006KT 7000 NSC 22/16 Q1024 NOSIG
  • 200700Z AUTO 33006KT 9000 NSC 22/16 Q1024 TEMPO FEW085CB BKN095
  • 200630Z AUTO VRB02KT 7000 NSC 22/16 Q1024 TEMPO FEW085CB BKN095
  • 200600Z AUTO 18005KT 160V220 8000 3000 NSC 21/16 Q1024 TEMPO FEW085CB BKN095
  • 200530Z AUTO 19006KT 9999 3000 NSC 19/15 Q1024 TEMPO FEW085CB BKN095

TAF TAF LFLB
Valide du 20 à 03h jusqu'au 21 à 03h UTC


200200Z 2003/2103 18007KT CAVOK
TEMPO 2004/2008 SCT090TCU
PROB30 2004/2008 -SHRA FEW085CB BKN095
PROB40
TEMPO 2015/2018 FEW110TCU



MET'MAP, la Météo Aéronautique d'un coup d'oeil ! - Copyright ORBIFLY Décembre 2007 - Disclaimer

ORBIFLY MET'MAP TEAM :

Programmation & Développement : Alexandra Zaïnal
Sur une idée originale de : Baudouin d'Aumeries
Soutien technique & logistique : Manuel Goepfert
Assistance : Marc-Olivier Méhu

Contact : metmap@orbifly.com




SOURCES & CREDITS :

   NOAA